sensor_id;sensor_type;location;lat;lon;timestamp;P1;durP1;ratioP1;P2;durP2;ratioP2
769;SDS011;368;48.698;9.116;2022-11-20T00:00:38;6.93;;;5.97;;
769;SDS011;368;48.698;9.116;2022-11-20T00:03:05;7.40;;;4.80;;
769;SDS011;368;48.698;9.116;2022-11-20T00:05:33;5.47;;;4.97;;
769;SDS011;368;48.698;9.116;2022-11-20T00:08:00;6.33;;;4.80;;
769;SDS011;368;48.698;9.116;2022-11-20T00:10:27;5.70;;;5.10;;
769;SDS011;368;48.698;9.116;2022-11-20T00:12:54;6.60;;;5.83;;
769;SDS011;368;48.698;9.116;2022-11-20T00:15:20;4.63;;;4.20;;
769;SDS011;368;48.698;9.116;2022-11-20T00:17:47;5.17;;;4.67;;
769;SDS011;368;48.698;9.116;2022-11-20T00:20:14;5.80;;;5.20;;
769;SDS011;368;48.698;9.116;2022-11-20T00:22:42;6.37;;;5.67;;
769;SDS011;368;48.698;9.116;2022-11-20T00:25:09;4.57;;;4.00;;
769;SDS011;368;48.698;9.116;2022-11-20T00:27:36;7.37;;;5.03;;
769;SDS011;368;48.698;9.116;2022-11-20T00:30:03;6.57;;;5.63;;
769;SDS011;368;48.698;9.116;2022-11-20T00:32:30;6.10;;;4.87;;
769;SDS011;368;48.698;9.116;2022-11-20T00:34:57;6.27;;;5.70;;
769;SDS011;368;48.698;9.116;2022-11-20T00:37:24;5.93;;;4.87;;
769;SDS011;368;48.698;9.116;2022-11-20T00:39:52;7.00;;;5.73;;
769;SDS011;368;48.698;9.116;2022-11-20T00:42:19;6.33;;;5.63;;
769;SDS011;368;48.698;9.116;2022-11-20T00:44:46;5.43;;;4.60;;
769;SDS011;368;48.698;9.116;2022-11-20T00:47:13;5.40;;;4.90;;
769;SDS011;368;48.698;9.116;2022-11-20T00:49:39;4.67;;;4.07;;
769;SDS011;368;48.698;9.116;2022-11-20T00:52:06;5.30;;;4.40;;
769;SDS011;368;48.698;9.116;2022-11-20T00:54:33;6.73;;;4.97;;
769;SDS011;368;48.698;9.116;2022-11-20T00:57:01;6.43;;;4.70;;
769;SDS011;368;48.698;9.116;2022-11-20T00:59:28;5.50;;;4.90;;
769;SDS011;368;48.698;9.116;2022-11-20T01:01:55;6.80;;;5.77;;
769;SDS011;368;48.698;9.116;2022-11-20T01:04:21;5.37;;;4.87;;
769;SDS011;368;48.698;9.116;2022-11-20T01:06:48;5.80;;;5.23;;
769;SDS011;368;48.698;9.116;2022-11-20T01:09:15;5.57;;;5.07;;
769;SDS011;368;48.698;9.116;2022-11-20T01:11:42;6.20;;;4.03;;
769;SDS011;368;48.698;9.116;2022-11-20T01:14:12;5.83;;;4.77;;
769;SDS011;368;48.698;9.116;2022-11-20T01:16:40;8.00;;;4.83;;
769;SDS011;368;48.698;9.116;2022-11-20T01:19:09;8.37;;;3.80;;
769;SDS011;368;48.698;9.116;2022-11-20T01:21:38;5.40;;;4.90;;
769;SDS011;368;48.698;9.116;2022-11-20T01:24:06;7.33;;;5.53;;
769;SDS011;368;48.698;9.116;2022-11-20T01:26:36;4.97;;;4.27;;
769;SDS011;368;48.698;9.116;2022-11-20T01:29:04;4.73;;;4.30;;
769;SDS011;368;48.698;9.116;2022-11-20T01:31:34;4.80;;;4.40;;
769;SDS011;368;48.698;9.116;2022-11-20T01:34:02;4.60;;;4.10;;
769;SDS011;368;48.698;9.116;2022-11-20T01:36:31;8.00;;;6.30;;
769;SDS011;368;48.698;9.116;2022-11-20T01:39:00;5.00;;;4.57;;
769;SDS011;368;48.698;9.116;2022-11-20T01:41:30;5.17;;;4.67;;
769;SDS011;368;48.698;9.116;2022-11-20T01:44:17;4.87;;;4.00;;
769;SDS011;368;48.698;9.116;2022-11-20T01:46:50;4.97;;;4.10;;
769;SDS011;368;48.698;9.116;2022-11-20T01:49:23;4.90;;;4.40;;
769;SDS011;368;48.698;9.116;2022-11-20T01:51:52;4.87;;;4.40;;
769;SDS011;368;48.698;9.116;2022-11-20T01:54:23;7.37;;;3.50;;
769;SDS011;368;48.698;9.116;2022-11-20T01:56:57;4.23;;;3.83;;
769;SDS011;368;48.698;9.116;2022-11-20T01:59:26;4.17;;;3.87;;
769;SDS011;368;48.698;9.116;2022-11-20T02:01:57;3.70;;;3.40;;
769;SDS011;368;48.698;9.116;2022-11-20T02:04:24;4.63;;;4.00;;
769;SDS011;368;48.698;9.116;2022-11-20T02:06:52;4.80;;;4.30;;
769;SDS011;368;48.698;9.116;2022-11-20T02:09:23;3.87;;;3.57;;
769;SDS011;368;48.698;9.116;2022-11-20T02:11:50;6.20;;;4.60;;
769;SDS011;368;48.698;9.116;2022-11-20T02:14:18;4.30;;;3.90;;
769;SDS011;368;48.698;9.116;2022-11-20T02:16:45;4.20;;;3.80;;
769;SDS011;368;48.698;9.116;2022-11-20T02:19:16;4.63;;;4.23;;
769;SDS011;368;48.698;9.116;2022-11-20T02:21:50;4.67;;;4.23;;
769;SDS011;368;48.698;9.116;2022-11-20T02:24:25;5.10;;;4.17;;
769;SDS011;368;48.698;9.116;2022-11-20T02:26:53;5.90;;;5.20;;
769;SDS011;368;48.698;9.116;2022-11-20T02:29:23;5.50;;;5.00;;
769;SDS011;368;48.698;9.116;2022-11-20T02:31:52;5.10;;;4.37;;
769;SDS011;368;48.698;9.116;2022-11-20T02:34:21;5.30;;;4.80;;
769;SDS011;368;48.698;9.116;2022-11-20T02:36:48;10.80;;;5.47;;
769;SDS011;368;48.698;9.116;2022-11-20T02:39:17;9.10;;;7.10;;
769;SDS011;368;48.698;9.116;2022-11-20T02:41:46;5.60;;;5.10;;
769;SDS011;368;48.698;9.116;2022-11-20T02:44:13;6.10;;;5.50;;
769;SDS011;368;48.698;9.116;2022-11-20T02:46:40;5.83;;;5.23;;
769;SDS011;368;48.698;9.116;2022-11-20T02:49:06;5.27;;;4.77;;
769;SDS011;368;48.698;9.116;2022-11-20T02:51:33;5.70;;;5.10;;
769;SDS011;368;48.698;9.116;2022-11-20T02:54:00;5.93;;;5.33;;
769;SDS011;368;48.698;9.116;2022-11-20T02:56:27;6.17;;;5.57;;
769;SDS011;368;48.698;9.116;2022-11-20T02:58:55;7.43;;;5.37;;
769;SDS011;368;48.698;9.116;2022-11-20T03:01:22;6.67;;;5.30;;
769;SDS011;368;48.698;9.116;2022-11-20T03:03:49;5.73;;;5.20;;
769;SDS011;368;48.698;9.116;2022-11-20T03:06:17;6.20;;;5.40;;
769;SDS011;368;48.698;9.116;2022-11-20T03:08:44;5.47;;;4.97;;
769;SDS011;368;48.698;9.116;2022-11-20T03:11:10;5.97;;;5.10;;
769;SDS011;368;48.698;9.116;2022-11-20T03:13:37;8.57;;;6.07;;
769;SDS011;368;48.698;9.116;2022-11-20T03:16:10;8.20;;;5.63;;
769;SDS011;368;48.698;9.116;2022-11-20T03:18:38;7.47;;;6.00;;
769;SDS011;368;48.698;9.116;2022-11-20T03:21:05;8.47;;;6.83;;
769;SDS011;368;48.698;9.116;2022-11-20T03:23:33;8.87;;;6.50;;
769;SDS011;368;48.698;9.116;2022-11-20T03:26:07;10.70;;;6.73;;
769;SDS011;368;48.698;9.116;2022-11-20T03:28:35;6.43;;;5.73;;
769;SDS011;368;48.698;9.116;2022-11-20T03:31:06;8.47;;;7.10;;
769;SDS011;368;48.698;9.116;2022-11-20T03:33:35;7.50;;;6.50;;
769;SDS011;368;48.698;9.116;2022-11-20T03:36:02;6.60;;;5.83;;
769;SDS011;368;48.698;9.116;2022-11-20T03:38:30;6.73;;;5.80;;
769;SDS011;368;48.698;9.116;2022-11-20T03:40:58;9.33;;;6.63;;
769;SDS011;368;48.698;9.116;2022-11-20T03:43:26;6.40;;;5.77;;
769;SDS011;368;48.698;9.116;2022-11-20T03:45:53;7.00;;;5.90;;
769;SDS011;368;48.698;9.116;2022-11-20T03:48:19;6.93;;;5.50;;
769;SDS011;368;48.698;9.116;2022-11-20T03:50:48;9.27;;;5.97;;
769;SDS011;368;48.698;9.116;2022-11-20T03:53:14;7.93;;;6.90;;
769;SDS011;368;48.698;9.116;2022-11-20T03:55:41;7.93;;;6.70;;
769;SDS011;368;48.698;9.116;2022-11-20T03:58:08;7.53;;;6.83;;
769;SDS011;368;48.698;9.116;2022-11-20T04:00:35;8.53;;;6.83;;
769;SDS011;368;48.698;9.116;2022-11-20T04:03:02;9.30;;;7.07;;
769;SDS011;368;48.698;9.116;2022-11-20T04:05:29;8.77;;;7.17;;
769;SDS011;368;48.698;9.116;2022-11-20T04:07:57;9.73;;;7.00;;
769;SDS011;368;48.698;9.116;2022-11-20T04:10:24;8.57;;;7.53;;
769;SDS011;368;48.698;9.116;2022-11-20T04:12:51;8.60;;;7.80;;
769;SDS011;368;48.698;9.116;2022-11-20T04:15:18;9.17;;;6.97;;
769;SDS011;368;48.698;9.116;2022-11-20T04:17:45;8.20;;;7.50;;
769;SDS011;368;48.698;9.116;2022-11-20T04:20:12;8.00;;;6.90;;
769;SDS011;368;48.698;9.116;2022-11-20T04:22:39;10.63;;;8.23;;
769;SDS011;368;48.698;9.116;2022-11-20T04:25:08;8.23;;;7.53;;
769;SDS011;368;48.698;9.116;2022-11-20T04:27:35;10.03;;;8.70;;
769;SDS011;368;48.698;9.116;2022-11-20T04:30:02;8.60;;;7.50;;
769;SDS011;368;48.698;9.116;2022-11-20T04:32:29;10.23;;;7.60;;
769;SDS011;368;48.698;9.116;2022-11-20T04:34:56;7.93;;;6.83;;
769;SDS011;368;48.698;9.116;2022-11-20T04:37:23;9.10;;;7.50;;
769;SDS011;368;48.698;9.116;2022-11-20T04:39:50;8.03;;;6.63;;
769;SDS011;368;48.698;9.116;2022-11-20T04:42:18;7.70;;;6.90;;
769;SDS011;368;48.698;9.116;2022-11-20T04:44:57;7.23;;;6.63;;
769;SDS011;368;48.698;9.116;2022-11-20T04:47:24;10.57;;;7.73;;
769;SDS011;368;48.698;9.116;2022-11-20T04:49:51;7.43;;;6.60;;
769;SDS011;368;48.698;9.116;2022-11-20T04:52:18;8.00;;;7.20;;
769;SDS011;368;48.698;9.116;2022-11-20T04:54:44;8.47;;;6.70;;
769;SDS011;368;48.698;9.116;2022-11-20T04:57:12;7.80;;;7.00;;
769;SDS011;368;48.698;9.116;2022-11-20T04:59:41;8.87;;;7.53;;
769;SDS011;368;48.698;9.116;2022-11-20T05:02:08;7.10;;;6.40;;
769;SDS011;368;48.698;9.116;2022-11-20T05:04:36;7.10;;;6.40;;
769;SDS011;368;48.698;9.116;2022-11-20T05:07:02;7.40;;;6.70;;
769;SDS011;368;48.698;9.116;2022-11-20T05:09:29;7.27;;;6.57;;
769;SDS011;368;48.698;9.116;2022-11-20T05:11:56;7.90;;;7.07;;
769;SDS011;368;48.698;9.116;2022-11-20T05:14:23;7.03;;;6.37;;
769;SDS011;368;48.698;9.116;2022-11-20T05:16:51;8.93;;;7.63;;
769;SDS011;368;48.698;9.116;2022-11-20T05:19:18;8.00;;;7.20;;
769;SDS011;368;48.698;9.116;2022-11-20T05:21:45;8.17;;;7.30;;
769;SDS011;368;48.698;9.116;2022-11-20T05:24:11;6.57;;;5.87;;
769;SDS011;368;48.698;9.116;2022-11-20T05:26:38;6.87;;;6.20;;
769;SDS011;368;48.698;9.116;2022-11-20T05:29:05;9.40;;;7.30;;
769;SDS011;368;48.698;9.116;2022-11-20T05:31:32;8.23;;;7.37;;
769;SDS011;368;48.698;9.116;2022-11-20T05:34:00;7.50;;;6.80;;
769;SDS011;368;48.698;9.116;2022-11-20T05:36:27;6.63;;;6.03;;
769;SDS011;368;48.698;9.116;2022-11-20T05:38:54;7.43;;;6.00;;
769;SDS011;368;48.698;9.116;2022-11-20T05:41:20;6.37;;;5.77;;
769;SDS011;368;48.698;9.116;2022-11-20T05:43:48;7.53;;;6.63;;
769;SDS011;368;48.698;9.116;2022-11-20T05:46:16;6.57;;;5.97;;
769;SDS011;368;48.698;9.116;2022-11-20T05:48:44;5.67;;;5.17;;
769;SDS011;368;48.698;9.116;2022-11-20T05:51:13;8.70;;;5.37;;
769;SDS011;368;48.698;9.116;2022-11-20T05:53:42;5.80;;;5.20;;
769;SDS011;368;48.698;9.116;2022-11-20T05:56:09;6.50;;;5.90;;
769;SDS011;368;48.698;9.116;2022-11-20T05:58:38;6.23;;;5.73;;
769;SDS011;368;48.698;9.116;2022-11-20T06:01:06;6.00;;;5.40;;
769;SDS011;368;48.698;9.116;2022-11-20T06:03:34;5.40;;;4.93;;
769;SDS011;368;48.698;9.116;2022-11-20T06:06:02;5.37;;;4.53;;
769;SDS011;368;48.698;9.116;2022-11-20T06:08:32;5.80;;;5.13;;
769;SDS011;368;48.698;9.116;2022-11-20T06:11:02;5.20;;;4.70;;
769;SDS011;368;48.698;9.116;2022-11-20T06:13:30;6.40;;;5.80;;
769;SDS011;368;48.698;9.116;2022-11-20T06:15:57;5.80;;;5.30;;
769;SDS011;368;48.698;9.116;2022-11-20T06:18:25;7.10;;;6.40;;
769;SDS011;368;48.698;9.116;2022-11-20T06:20:58;6.10;;;4.40;;
769;SDS011;368;48.698;9.116;2022-11-20T06:23:27;6.20;;;5.50;;
769;SDS011;368;48.698;9.116;2022-11-20T06:25:56;6.33;;;5.83;;
769;SDS011;368;48.698;9.116;2022-11-20T06:28:23;5.63;;;5.13;;
769;SDS011;368;48.698;9.116;2022-11-20T06:30:50;5.73;;;4.23;;
769;SDS011;368;48.698;9.116;2022-11-20T06:33:17;5.27;;;4.77;;
769;SDS011;368;48.698;9.116;2022-11-20T06:35:43;4.90;;;4.50;;
769;SDS011;368;48.698;9.116;2022-11-20T06:38:10;6.17;;;4.43;;
769;SDS011;368;48.698;9.116;2022-11-20T06:40:39;7.50;;;4.83;;
769;SDS011;368;48.698;9.116;2022-11-20T06:43:08;5.73;;;5.23;;
769;SDS011;368;48.698;9.116;2022-11-20T06:45:36;5.20;;;4.80;;
769;SDS011;368;48.698;9.116;2022-11-20T06:48:03;4.50;;;4.10;;
769;SDS011;368;48.698;9.116;2022-11-20T06:50:30;4.90;;;4.33;;
769;SDS011;368;48.698;9.116;2022-11-20T06:52:59;6.07;;;5.50;;
769;SDS011;368;48.698;9.116;2022-11-20T06:55:27;5.57;;;5.07;;
769;SDS011;368;48.698;9.116;2022-11-20T06:57:54;5.50;;;4.37;;
769;SDS011;368;48.698;9.116;2022-11-20T07:00:22;6.10;;;4.50;;
769;SDS011;368;48.698;9.116;2022-11-20T07:02:49;6.30;;;5.30;;
769;SDS011;368;48.698;9.116;2022-11-20T07:05:16;5.93;;;5.10;;
769;SDS011;368;48.698;9.116;2022-11-20T07:07:43;6.70;;;6.00;;
769;SDS011;368;48.698;9.116;2022-11-20T07:10:10;7.00;;;5.80;;
769;SDS011;368;48.698;9.116;2022-11-20T07:12:37;6.90;;;6.30;;
769;SDS011;368;48.698;9.116;2022-11-20T07:15:05;6.33;;;5.47;;
769;SDS011;368;48.698;9.116;2022-11-20T07:17:34;5.13;;;3.77;;
769;SDS011;368;48.698;9.116;2022-11-20T07:20:00;6.60;;;5.73;;
769;SDS011;368;48.698;9.116;2022-11-20T07:22:27;5.97;;;5.00;;
769;SDS011;368;48.698;9.116;2022-11-20T07:24:54;6.03;;;5.43;;
769;SDS011;368;48.698;9.116;2022-11-20T07:27:21;6.10;;;5.33;;
769;SDS011;368;48.698;9.116;2022-11-20T07:29:47;5.60;;;5.10;;
769;SDS011;368;48.698;9.116;2022-11-20T07:32:14;6.03;;;4.60;;
769;SDS011;368;48.698;9.116;2022-11-20T07:34:42;5.20;;;4.47;;
769;SDS011;368;48.698;9.116;2022-11-20T07:37:09;5.63;;;4.20;;
769;SDS011;368;48.698;9.116;2022-11-20T07:39:36;7.33;;;6.13;;
769;SDS011;368;48.698;9.116;2022-11-20T07:42:03;5.97;;;4.83;;
769;SDS011;368;48.698;9.116;2022-11-20T07:44:29;6.37;;;5.77;;
769;SDS011;368;48.698;9.116;2022-11-20T07:46:56;5.13;;;4.63;;
769;SDS011;368;48.698;9.116;2022-11-20T07:49:23;5.30;;;4.80;;
769;SDS011;368;48.698;9.116;2022-11-20T07:51:51;4.30;;;3.90;;
769;SDS011;368;48.698;9.116;2022-11-20T07:54:19;6.27;;;4.77;;
769;SDS011;368;48.698;9.116;2022-11-20T07:56:46;5.17;;;4.60;;
769;SDS011;368;48.698;9.116;2022-11-20T07:59:13;4.70;;;3.93;;
769;SDS011;368;48.698;9.116;2022-11-20T08:01:40;6.73;;;5.70;;
769;SDS011;368;48.698;9.116;2022-11-20T08:04:07;7.07;;;6.37;;
769;SDS011;368;48.698;9.116;2022-11-20T08:06:35;5.00;;;4.30;;
769;SDS011;368;48.698;9.116;2022-11-20T08:09:03;5.10;;;4.60;;
769;SDS011;368;48.698;9.116;2022-11-20T08:11:30;4.70;;;4.20;;
769;SDS011;368;48.698;9.116;2022-11-20T08:14:14;4.70;;;4.23;;
769;SDS011;368;48.698;9.116;2022-11-20T08:16:42;5.00;;;4.13;;
769;SDS011;368;48.698;9.116;2022-11-20T08:19:09;4.10;;;3.63;;
769;SDS011;368;48.698;9.116;2022-11-20T08:21:37;4.70;;;4.30;;
769;SDS011;368;48.698;9.116;2022-11-20T08:24:06;4.03;;;3.63;;
769;SDS011;368;48.698;9.116;2022-11-20T08:26:34;5.70;;;3.00;;
769;SDS011;368;48.698;9.116;2022-11-20T08:29:01;4.30;;;3.90;;
769;SDS011;368;48.698;9.116;2022-11-20T08:31:28;5.20;;;4.50;;
769;SDS011;368;48.698;9.116;2022-11-20T08:33:55;3.33;;;3.07;;
769;SDS011;368;48.698;9.116;2022-11-20T08:36:23;4.27;;;3.80;;
769;SDS011;368;48.698;9.116;2022-11-20T08:38:51;4.97;;;4.20;;
769;SDS011;368;48.698;9.116;2022-11-20T08:41:21;7.07;;;5.30;;
769;SDS011;368;48.698;9.116;2022-11-20T08:43:52;5.40;;;4.70;;
769;SDS011;368;48.698;9.116;2022-11-20T08:46:21;5.37;;;4.73;;
769;SDS011;368;48.698;9.116;2022-11-20T08:48:48;4.17;;;3.77;;
769;SDS011;368;48.698;9.116;2022-11-20T08:51:15;3.90;;;3.60;;
769;SDS011;368;48.698;9.116;2022-11-20T08:53:42;3.67;;;3.37;;
769;SDS011;368;48.698;9.116;2022-11-20T08:56:09;3.30;;;3.00;;
769;SDS011;368;48.698;9.116;2022-11-20T08:58:37;4.10;;;3.70;;
769;SDS011;368;48.698;9.116;2022-11-20T09:01:06;3.70;;;3.20;;
769;SDS011;368;48.698;9.116;2022-11-20T09:03:33;2.80;;;2.60;;
769;SDS011;368;48.698;9.116;2022-11-20T09:06:00;3.70;;;2.50;;
769;SDS011;368;48.698;9.116;2022-11-20T09:08:28;2.37;;;2.17;;
769;SDS011;368;48.698;9.116;2022-11-20T09:10:55;2.67;;;2.47;;
769;SDS011;368;48.698;9.116;2022-11-20T09:13:26;3.33;;;1.87;;
769;SDS011;368;48.698;9.116;2022-11-20T09:15:56;1.60;;;1.50;;
769;SDS011;368;48.698;9.116;2022-11-20T09:18:25;1.50;;;1.40;;
769;SDS011;368;48.698;9.116;2022-11-20T09:20:56;2.57;;;1.60;;
769;SDS011;368;48.698;9.116;2022-11-20T09:23:23;2.80;;;1.83;;
769;SDS011;368;48.698;9.116;2022-11-20T09:25:50;4.40;;;4.00;;
769;SDS011;368;48.698;9.116;2022-11-20T09:28:20;1.73;;;1.63;;
769;SDS011;368;48.698;9.116;2022-11-20T09:30:47;1.63;;;1.53;;
769;SDS011;368;48.698;9.116;2022-11-20T09:33:15;2.43;;;2.23;;
769;SDS011;368;48.698;9.116;2022-11-20T09:35:42;1.20;;;1.10;;
769;SDS011;368;48.698;9.116;2022-11-20T09:38:09;2.03;;;1.93;;
769;SDS011;368;48.698;9.116;2022-11-20T09:40:38;3.13;;;1.30;;
769;SDS011;368;48.698;9.116;2022-11-20T09:43:11;1.10;;;1.00;;
769;SDS011;368;48.698;9.116;2022-11-20T09:45:47;1.30;;;1.20;;
769;SDS011;368;48.698;9.116;2022-11-20T09:48:32;1.53;;;1.43;;
769;SDS011;368;48.698;9.116;2022-11-20T09:51:20;1.77;;;1.67;;
769;SDS011;368;48.698;9.116;2022-11-20T09:54:00;1.43;;;1.10;;
769;SDS011;368;48.698;9.116;2022-11-20T09:56:39;1.40;;;1.20;;
769;SDS011;368;48.698;9.116;2022-11-20T09:59:12;2.40;;;2.30;;
769;SDS011;368;48.698;9.116;2022-11-20T10:01:49;1.17;;;1.07;;
769;SDS011;368;48.698;9.116;2022-11-20T10:04:18;1.03;;;0.80;;
769;SDS011;368;48.698;9.116;2022-11-20T10:06:47;1.33;;;1.03;;
769;SDS011;368;48.698;9.116;2022-11-20T10:09:22;1.10;;;1.00;;
769;SDS011;368;48.698;9.116;2022-11-20T10:12:00;0.80;;;0.70;;
769;SDS011;368;48.698;9.116;2022-11-20T10:14:38;2.63;;;2.43;;
769;SDS011;368;48.698;9.116;2022-11-20T10:17:20;1.40;;;1.30;;
769;SDS011;368;48.698;9.116;2022-11-20T10:20:02;1.60;;;1.40;;
769;SDS011;368;48.698;9.116;2022-11-20T10:22:46;1.90;;;1.70;;
769;SDS011;368;48.698;9.116;2022-11-20T10:25:21;2.63;;;2.43;;
769;SDS011;368;48.698;9.116;2022-11-20T10:27:56;1.93;;;1.83;;
769;SDS011;368;48.698;9.116;2022-11-20T10:30:48;0.90;;;0.90;;
769;SDS011;368;48.698;9.116;2022-11-20T10:33:21;1.37;;;0.80;;
769;SDS011;368;48.698;9.116;2022-11-20T10:35:52;1.27;;;1.17;;
769;SDS011;368;48.698;9.116;2022-11-20T10:38:26;1.10;;;1.00;;
769;SDS011;368;48.698;9.116;2022-11-20T10:41:01;2.90;;;2.70;;
769;SDS011;368;48.698;9.116;2022-11-20T10:43:43;1.50;;;1.40;;
769;SDS011;368;48.698;9.116;2022-11-20T10:46:12;2.80;;;2.60;;
769;SDS011;368;48.698;9.116;2022-11-20T10:48:43;2.53;;;2.17;;
769;SDS011;368;48.698;9.116;2022-11-20T10:51:15;2.67;;;2.50;;
769;SDS011;368;48.698;9.116;2022-11-20T10:56:39;1.60;;;1.40;;
769;SDS011;368;48.698;9.116;2022-11-20T10:59:27;2.13;;;1.93;;
769;SDS011;368;48.698;9.116;2022-11-20T11:02:18;3.20;;;2.90;;
769;SDS011;368;48.698;9.116;2022-11-20T11:04:46;1.50;;;1.40;;
769;SDS011;368;48.698;9.116;2022-11-20T11:07:17;3.50;;;3.20;;
769;SDS011;368;48.698;9.116;2022-11-20T11:09:48;15.77;;;8.03;;
769;SDS011;368;48.698;9.116;2022-11-20T11:12:18;3.13;;;2.67;;
769;SDS011;368;48.698;9.116;2022-11-20T11:14:46;3.10;;;2.80;;
769;SDS011;368;48.698;9.116;2022-11-20T11:17:22;3.30;;;3.10;;
769;SDS011;368;48.698;9.116;2022-11-20T11:20:00;2.77;;;2.57;;
769;SDS011;368;48.698;9.116;2022-11-20T11:22:31;5.97;;;5.37;;
769;SDS011;368;48.698;9.116;2022-11-20T11:25:00;2.57;;;2.30;;
769;SDS011;368;48.698;9.116;2022-11-20T11:27:28;2.23;;;2.03;;
769;SDS011;368;48.698;9.116;2022-11-20T11:30:02;3.20;;;2.50;;
769;SDS011;368;48.698;9.116;2022-11-20T11:32:39;1.77;;;1.37;;
769;SDS011;368;48.698;9.116;2022-11-20T11:35:06;1.70;;;1.33;;
769;SDS011;368;48.698;9.116;2022-11-20T11:37:46;2.10;;;1.37;;
769;SDS011;368;48.698;9.116;2022-11-20T11:40:14;2.97;;;2.00;;
769;SDS011;368;48.698;9.116;2022-11-20T11:42:42;2.67;;;1.53;;
769;SDS011;368;48.698;9.116;2022-11-20T11:45:11;3.00;;;2.07;;
769;SDS011;368;48.698;9.116;2022-11-20T11:47:43;1.60;;;1.20;;
769;SDS011;368;48.698;9.116;2022-11-20T11:50:16;2.63;;;2.03;;
769;SDS011;368;48.698;9.116;2022-11-20T11:52:48;2.27;;;1.93;;
769;SDS011;368;48.698;9.116;2022-11-20T11:55:24;2.03;;;1.40;;
769;SDS011;368;48.698;9.116;2022-11-20T11:57:56;1.47;;;1.10;;
769;SDS011;368;48.698;9.116;2022-11-20T12:00:30;1.63;;;1.30;;
769;SDS011;368;48.698;9.116;2022-11-20T12:03:00;2.33;;;1.53;;
769;SDS011;368;48.698;9.116;2022-11-20T12:05:35;2.87;;;1.20;;
769;SDS011;368;48.698;9.116;2022-11-20T12:08:12;1.57;;;1.33;;
769;SDS011;368;48.698;9.116;2022-11-20T12:10:44;2.30;;;1.73;;
769;SDS011;368;48.698;9.116;2022-11-20T12:13:20;1.47;;;1.20;;
769;SDS011;368;48.698;9.116;2022-11-20T12:15:52;1.97;;;1.40;;
769;SDS011;368;48.698;9.116;2022-11-20T12:18:20;3.43;;;1.67;;
769;SDS011;368;48.698;9.116;2022-11-20T12:20:52;3.90;;;1.27;;
769;SDS011;368;48.698;9.116;2022-11-20T12:23:30;1.37;;;1.10;;
769;SDS011;368;48.698;9.116;2022-11-20T12:26:12;1.20;;;0.90;;
769;SDS011;368;48.698;9.116;2022-11-20T12:28:49;2.27;;;1.13;;
769;SDS011;368;48.698;9.116;2022-11-20T12:31:37;1.90;;;1.40;;
769;SDS011;368;48.698;9.116;2022-11-20T12:34:18;3.13;;;1.93;;
769;SDS011;368;48.698;9.116;2022-11-20T12:37:03;1.70;;;1.50;;
769;SDS011;368;48.698;9.116;2022-11-20T12:39:41;3.03;;;1.37;;
769;SDS011;368;48.698;9.116;2022-11-20T12:42:27;2.40;;;1.10;;
769;SDS011;368;48.698;9.116;2022-11-20T12:45:41;3.13;;;1.70;;
769;SDS011;368;48.698;9.116;2022-11-20T12:48:26;1.57;;;1.40;;
769;SDS011;368;48.698;9.116;2022-11-20T12:54:04;1.43;;;1.20;;
769;SDS011;368;48.698;9.116;2022-11-20T12:56:54;1.90;;;1.40;;
769;SDS011;368;48.698;9.116;2022-11-20T12:59:28;1.30;;;1.03;;
769;SDS011;368;48.698;9.116;2022-11-20T13:02:11;2.40;;;1.03;;
769;SDS011;368;48.698;9.116;2022-11-20T13:04:55;1.20;;;1.10;;
769;SDS011;368;48.698;9.116;2022-11-20T13:07:33;3.50;;;0.93;;
769;SDS011;368;48.698;9.116;2022-11-20T13:10:01;0.90;;;0.73;;
769;SDS011;368;48.698;9.116;2022-11-20T13:12:31;0.97;;;0.80;;
769;SDS011;368;48.698;9.116;2022-11-20T13:15:04;1.70;;;1.60;;
769;SDS011;368;48.698;9.116;2022-11-20T13:17:46;1.30;;;1.07;;
769;SDS011;368;48.698;9.116;2022-11-20T13:20:17;0.90;;;0.90;;
769;SDS011;368;48.698;9.116;2022-11-20T13:22:45;1.53;;;1.00;;
769;SDS011;368;48.698;9.116;2022-11-20T13:25:23;1.73;;;1.00;;
769;SDS011;368;48.698;9.116;2022-11-20T13:27:53;1.47;;;0.90;;
769;SDS011;368;48.698;9.116;2022-11-20T13:30:20;1.53;;;1.00;;
769;SDS011;368;48.698;9.116;2022-11-20T13:32:49;1.80;;;1.10;;
769;SDS011;368;48.698;9.116;2022-11-20T13:35:25;3.03;;;2.53;;
769;SDS011;368;48.698;9.116;2022-11-20T13:38:04;2.23;;;1.20;;
769;SDS011;368;48.698;9.116;2022-11-20T13:40:33;1.50;;;1.03;;
769;SDS011;368;48.698;9.116;2022-11-20T13:43:04;2.77;;;1.10;;
769;SDS011;368;48.698;9.116;2022-11-20T13:45:41;2.83;;;0.93;;
769;SDS011;368;48.698;9.116;2022-11-20T13:48:18;2.03;;;1.60;;
769;SDS011;368;48.698;9.116;2022-11-20T13:50:50;3.80;;;1.83;;
769;SDS011;368;48.698;9.116;2022-11-20T13:53:28;2.50;;;1.00;;
769;SDS011;368;48.698;9.116;2022-11-20T13:56:11;2.53;;;1.80;;
769;SDS011;368;48.698;9.116;2022-11-20T13:58:52;1.30;;;1.03;;
769;SDS011;368;48.698;9.116;2022-11-20T14:01:29;2.10;;;1.63;;
769;SDS011;368;48.698;9.116;2022-11-20T14:03:57;2.90;;;1.40;;
769;SDS011;368;48.698;9.116;2022-11-20T14:06:25;1.20;;;1.10;;
769;SDS011;368;48.698;9.116;2022-11-20T14:08:54;1.43;;;1.00;;
769;SDS011;368;48.698;9.116;2022-11-20T14:11:22;1.63;;;1.33;;
769;SDS011;368;48.698;9.116;2022-11-20T14:13:53;3.27;;;1.30;;
769;SDS011;368;48.698;9.116;2022-11-20T14:16:22;1.60;;;1.30;;
769;SDS011;368;48.698;9.116;2022-11-20T14:18:49;1.87;;;1.37;;
769;SDS011;368;48.698;9.116;2022-11-20T14:21:21;2.00;;;1.60;;
769;SDS011;368;48.698;9.116;2022-11-20T14:23:53;2.13;;;1.40;;
769;SDS011;368;48.698;9.116;2022-11-20T14:26:28;2.53;;;1.53;;
769;SDS011;368;48.698;9.116;2022-11-20T14:28:57;1.20;;;1.10;;
769;SDS011;368;48.698;9.116;2022-11-20T14:31:24;2.30;;;1.63;;
769;SDS011;368;48.698;9.116;2022-11-20T14:33:53;3.60;;;1.60;;
769;SDS011;368;48.698;9.116;2022-11-20T14:36:21;2.70;;;2.50;;
769;SDS011;368;48.698;9.116;2022-11-20T14:38:50;16.97;;;15.37;;
769;SDS011;368;48.698;9.116;2022-11-20T14:41:18;8.17;;;7.33;;
769;SDS011;368;48.698;9.116;2022-11-20T14:43:55;3.57;;;2.47;;
769;SDS011;368;48.698;9.116;2022-11-20T14:46:25;6.00;;;5.50;;
769;SDS011;368;48.698;9.116;2022-11-20T14:48:54;2.73;;;2.40;;
769;SDS011;368;48.698;9.116;2022-11-20T14:51:26;3.37;;;2.60;;
769;SDS011;368;48.698;9.116;2022-11-20T14:53:55;2.63;;;2.23;;
769;SDS011;368;48.698;9.116;2022-11-20T14:56:22;5.50;;;2.70;;
769;SDS011;368;48.698;9.116;2022-11-20T14:58:57;3.20;;;2.70;;
769;SDS011;368;48.698;9.116;2022-11-20T15:01:27;9.63;;;7.63;;
769;SDS011;368;48.698;9.116;2022-11-20T15:04:04;4.07;;;2.63;;
769;SDS011;368;48.698;9.116;2022-11-20T15:06:32;5.23;;;2.37;;
769;SDS011;368;48.698;9.116;2022-11-20T15:08:59;3.63;;;2.50;;
769;SDS011;368;48.698;9.116;2022-11-20T15:11:29;6.50;;;4.27;;
769;SDS011;368;48.698;9.116;2022-11-20T15:13:59;3.17;;;2.60;;
769;SDS011;368;48.698;9.116;2022-11-20T15:16:29;5.10;;;3.43;;
769;SDS011;368;48.698;9.116;2022-11-20T15:18:56;4.10;;;3.53;;
769;SDS011;368;48.698;9.116;2022-11-20T15:21:23;2.10;;;1.90;;
769;SDS011;368;48.698;9.116;2022-11-20T15:23:50;3.87;;;3.57;;
769;SDS011;368;48.698;9.116;2022-11-20T15:26:20;3.07;;;2.87;;
769;SDS011;368;48.698;9.116;2022-11-20T15:28:49;3.67;;;3.37;;
769;SDS011;368;48.698;9.116;2022-11-20T15:31:19;3.73;;;2.30;;
769;SDS011;368;48.698;9.116;2022-11-20T15:33:47;2.20;;;2.00;;
769;SDS011;368;48.698;9.116;2022-11-20T15:36:14;4.13;;;3.73;;
769;SDS011;368;48.698;9.116;2022-11-20T15:38:41;2.77;;;2.40;;
769;SDS011;368;48.698;9.116;2022-11-20T15:41:08;3.83;;;3.07;;
769;SDS011;368;48.698;9.116;2022-11-20T15:43:35;4.00;;;3.23;;
769;SDS011;368;48.698;9.116;2022-11-20T15:46:03;2.83;;;2.63;;
769;SDS011;368;48.698;9.116;2022-11-20T15:48:34;3.67;;;3.40;;
769;SDS011;368;48.698;9.116;2022-11-20T15:51:03;3.10;;;2.83;;
769;SDS011;368;48.698;9.116;2022-11-20T15:53:38;3.07;;;2.87;;
769;SDS011;368;48.698;9.116;2022-11-20T15:56:06;4.13;;;3.70;;
769;SDS011;368;48.698;9.116;2022-11-20T15:58:37;5.60;;;3.90;;
769;SDS011;368;48.698;9.116;2022-11-20T16:01:03;3.67;;;3.37;;
769;SDS011;368;48.698;9.116;2022-11-20T16:03:30;2.50;;;2.30;;
769;SDS011;368;48.698;9.116;2022-11-20T16:05:59;4.00;;;3.70;;
769;SDS011;368;48.698;9.116;2022-11-20T16:08:25;4.03;;;3.67;;